Time;durP1;ratioP1;P1;durP2;ratioP2;P2;SDS_P1;SDS_P2;PMS_P1;PMS_P2;Temp;Humidity;BMP_temperature;BMP_pressure;BME280_temperature;BME280_humidity;BME280_pressure;Samples;Min_cycle;Max_cycle;Signal;HPM_P1;HPM_P2
2024/03/12 00:00:45;;;;;;;75.93;54.28;;;7.70;99.90;;;;;;7372083;19;20033;-63
2024/03/12 00:03:11;;;;;;;76.75;54.22;;;7.70;99.90;;;;;;7366004;19;20023;-64
2024/03/12 00:05:40;;;;;;;80.05;51.22;;;7.70;99.90;;;;;;7369490;19;20026;-64
2024/03/12 00:08:07;;;;;;;77.78;53.13;;;7.80;99.90;;;;;;7365601;19;20041;-64
2024/03/12 00:10:33;;;;;;;77.65;54.45;;;7.70;99.90;;;;;;7368077;19;20035;-64
2024/03/12 00:13:01;;;;;;;76.80;54.72;;;7.70;99.90;;;;;;7370209;19;20044;-64
2024/03/12 00:15:28;;;;;;;78.70;53.08;;;7.80;99.90;;;;;;7372844;19;20023;-64
2024/03/12 00:17:55;;;;;;;81.80;55.28;;;7.70;99.90;;;;;;7372261;19;20756;-65
2024/03/12 00:20:35;;;;;;;82.40;53.75;;;7.80;99.90;;;;;;7370905;19;20027;-64
2024/03/12 00:23:02;;;;;;;87.88;55.45;;;7.70;99.90;;;;;;7368532;19;20035;-64
2024/03/12 00:25:30;;;;;;;84.45;56.72;;;7.70;99.90;;;;;;7364508;19;20019;-66
2024/03/12 00:27:56;;;;;;;89.93;58.00;;;7.70;99.90;;;;;;7369647;19;20015;-64
2024/03/12 00:30:29;;;;;;;84.72;55.42;;;7.80;99.90;;;;;;7367985;19;20018;-64
2024/03/12 00:32:59;;;;;;;96.22;56.78;;;7.70;99.90;;;;;;7371508;19;20022;-66
2024/03/12 00:35:43;;;;;;;94.80;56.63;;;7.80;99.90;;;;;;7363628;19;20022;-67
2024/03/12 00:38:10;;;;;;;102.57;61.47;;;7.70;99.90;;;;;;7370341;19;20051;-66
2024/03/12 00:40:36;;;;;;;94.13;58.22;;;7.70;99.90;;;;;;7369437;19;20126;-66
2024/03/12 00:43:05;;;;;;;90.90;57.13;;;7.70;99.90;;;;;;7368187;19;20018;-66
2024/03/12 00:45:41;;;;;;;93.65;59.10;;;7.70;99.90;;;;;;7371271;19;20014;-64
2024/03/12 00:48:09;;;;;;;100.88;61.15;;;7.70;99.90;;;;;;7366029;19;20015;-64
2024/03/12 00:50:36;;;;;;;98.32;58.58;;;7.70;99.90;;;;;;7372123;19;20018;-66
2024/03/12 00:53:03;;;;;;;100.20;60.35;;;7.70;99.90;;;;;;7369723;19;20387;-64
2024/03/12 00:55:30;;;;;;;100.70;60.50;;;7.70;99.90;;;;;;7368766;19;20778;-67
2024/03/12 00:57:57;;;;;;;108.55;61.28;;;7.70;99.90;;;;;;7367909;19;20082;-66
2024/03/12 01:00:25;;;;;;;100.68;59.17;;;7.70;99.90;;;;;;7370897;19;20026;-64
2024/03/12 01:02:54;;;;;;;105.28;59.78;;;7.70;99.90;;;;;;7367120;19;20697;-65
2024/03/12 01:05:25;;;;;;;109.93;62.78;;;7.70;99.90;;;;;;7369586;19;20053;-66
2024/03/12 01:07:58;;;;;;;120.05;63.80;;;7.70;99.90;;;;;;7366059;19;20914;-64
2024/03/12 01:10:27;;;;;;;123.72;65.28;;;7.70;99.90;;;;;;7366104;19;20015;-66
2024/03/12 01:12:55;;;;;;;135.85;68.18;;;7.60;99.90;;;;;;7363668;19;20018;-66
2024/03/12 01:15:25;;;;;;;124.78;65.15;;;7.60;99.90;;;;;;7368104;19;20030;-66
2024/03/12 01:17:56;;;;;;;142.82;68.15;;;7.60;99.90;;;;;;7368965;19;20894;-64
2024/03/12 01:20:26;;;;;;;130.20;66.28;;;7.60;99.90;;;;;;7365656;19;20857;-66
2024/03/12 01:22:57;;;;;;;133.43;68.05;;;7.60;99.90;;;;;;7366122;19;20022;-67
2024/03/12 01:25:24;;;;;;;132.45;68.38;;;7.60;99.90;;;;;;7360071;19;20049;-66
2024/03/12 01:27:55;;;;;;;122.30;65.18;;;7.60;99.90;;;;;;7371457;19;20041;-64
2024/03/12 01:30:26;;;;;;;123.90;69.20;;;7.60;99.90;;;;;;7367468;19;20018;-67
2024/03/12 01:32:54;;;;;;;118.05;65.45;;;7.60;99.90;;;;;;7366519;19;20121;-66
2024/03/12 01:35:20;;;;;;;120.68;66.32;;;7.60;99.90;;;;;;7367935;19;20470;-66
2024/03/12 01:37:51;;;;;;;107.88;63.80;;;7.60;99.90;;;;;;7366929;19;20053;-64
2024/03/12 01:40:21;;;;;;;101.50;63.58;;;7.60;99.90;;;;;;7366791;19;20029;-64
2024/03/12 01:42:53;;;;;;;111.57;63.95;;;7.70;99.90;;;;;;7368243;19;20051;-66
2024/03/12 01:45:24;;;;;;;;;;;7.60;99.90;;;;;;7367894;19;20019;-66
2024/03/12 01:47:51;;;;;;;95.65;60.22;;;7.70;99.90;;;;;;7366048;19;19919;-65
2024/03/12 01:50:18;;;;;;;96.50;59.78;;;7.70;99.90;;;;;;7363383;19;20021;-67
2024/03/12 01:52:46;;;;;;;97.50;60.58;;;7.70;99.90;;;;;;7367156;19;20470;-65
2024/03/12 01:55:13;;;;;;;85.50;56.45;;;7.70;99.90;;;;;;7364471;19;20621;-64
2024/03/12 01:57:41;;;;;;;87.97;57.65;;;7.70;99.90;;;;;;7364751;19;20076;-64
2024/03/12 02:00:10;;;;;;;88.78;56.78;;;7.70;99.90;;;;;;7366579;19;20022;-66
2024/03/12 02:02:38;;;;;;;91.32;56.17;;;7.70;99.90;;;;;;7366878;19;20657;-64
2024/03/12 02:05:10;;;;;;;77.28;52.88;;;7.70;99.90;;;;;;7367427;19;20110;-64
2024/03/12 02:07:45;;;;;;;80.07;56.38;;;7.70;99.90;;;;;;7366771;19;20023;-64
2024/03/12 02:10:13;;;;;;;84.10;55.00;;;7.70;99.90;;;;;;7368682;19;20022;-64
2024/03/12 02:12:40;;;;;;;77.47;55.20;;;7.70;99.90;;;;;;7368905;19;20112;-64
2024/03/12 02:15:08;;;;;;;80.00;53.28;;;7.70;99.90;;;;;;7364723;19;20049;-63
2024/03/12 02:17:39;;;;;;;80.18;54.90;;;7.70;99.90;;;;;;7364323;19;20026;-64
2024/03/12 02:20:09;;;;;;;76.17;55.47;;;7.70;99.90;;;;;;7370258;19;20091;-64
2024/03/12 02:22:36;;;;;;;76.38;54.92;;;7.70;99.90;;;;;;7370752;19;20025;-63
2024/03/12 02:25:04;;;;;;;89.05;61.00;;;7.70;99.90;;;;;;7363312;19;20022;-66
2024/03/12 02:27:33;;;;;;;83.10;58.53;;;7.70;99.90;;;;;;7368338;19;20029;-64
2024/03/12 02:29:59;;;;;;;87.78;60.53;;;7.80;99.90;;;;;;7362135;19;20138;-67
2024/03/12 02:32:25;;;;;;;94.63;62.88;;;7.70;99.90;;;;;;7359749;19;20026;-63
2024/03/12 02:34:52;;;;;;;91.88;61.70;;;7.70;99.90;;;;;;7365836;19;20676;-63
2024/03/12 02:37:21;;;;;;;99.38;61.33;;;7.70;99.90;;;;;;7357054;19;20015;-63
2024/03/12 02:39:47;;;;;;;92.38;58.80;;;7.70;99.90;;;;;;7370870;19;20090;-65
2024/03/12 02:42:15;;;;;;;104.03;63.10;;;7.70;99.90;;;;;;7365096;19;20037;-63
2024/03/12 02:44:41;;;;;;;102.03;63.55;;;7.60;99.90;;;;;;7366876;19;20154;-63
2024/03/12 02:47:09;;;;;;;99.07;64.25;;;7.60;99.90;;;;;;7367429;19;20026;-63
2024/03/12 02:49:36;;;;;;;100.97;64.35;;;7.60;99.90;;;;;;7367753;19;20345;-66
2024/03/12 02:52:03;;;;;;;103.57;65.10;;;7.60;99.90;;;;;;7368542;19;20030;-65
2024/03/12 02:54:29;;;;;;;103.10;62.40;;;7.60;99.90;;;;;;7368961;19;20030;-64
2024/03/12 02:56:56;;;;;;;105.63;66.43;;;7.60;99.90;;;;;;7356044;19;20023;-66
2024/03/12 02:59:27;;;;;;;100.00;64.15;;;7.60;99.90;;;;;;7367688;19;20815;-66
2024/03/12 03:01:55;;;;;;;103.75;65.53;;;7.60;99.90;;;;;;7366104;19;20049;-63
2024/03/12 03:04:22;;;;;;;96.50;62.67;;;7.60;99.90;;;;;;7365415;19;20403;-63
2024/03/12 03:06:51;;;;;;;101.65;64.82;;;7.60;99.90;;;;;;7371500;19;20478;-63
2024/03/12 03:09:17;;;;;;;102.03;61.50;;;7.60;99.90;;;;;;7373517;19;20041;-64
2024/03/12 03:11:45;;;;;;;104.65;64.50;;;7.60;99.90;;;;;;7368343;19;20830;-66
2024/03/12 03:14:11;;;;;;;115.32;67.72;;;7.60;99.90;;;;;;7368516;19;20022;-66
2024/03/12 03:16:37;;;;;;;114.97;66.50;;;7.60;99.90;;;;;;7371352;19;20138;-64
2024/03/12 03:19:05;;;;;;;111.20;67.35;;;7.60;99.90;;;;;;7376705;19;20015;-63
2024/03/12 03:21:31;;;;;;;108.57;65.55;;;7.60;99.90;;;;;;7369043;19;20491;-65
2024/03/12 03:23:58;;;;;;;128.90;69.53;;;7.60;99.90;;;;;;7375952;19;20022;-66
2024/03/12 03:26:25;;;;;;;120.28;69.03;;;7.60;99.90;;;;;;7367424;19;20547;-65
2024/03/12 03:28:51;;;;;;;120.20;69.72;;;7.60;99.90;;;;;;7375144;19;20871;-66
2024/03/12 03:31:18;;;;;;;146.00;72.63;;;7.50;99.90;;;;;;7373897;19;20022;-65
2024/03/12 03:33:47;;;;;;;135.60;71.53;;;7.60;99.90;;;;;;7373158;19;20014;-65
2024/03/12 03:36:14;;;;;;;150.57;74.43;;;7.50;99.90;;;;;;7371378;19;20053;-63
2024/03/12 03:38:40;;;;;;;138.60;75.47;;;7.50;99.90;;;;;;7371814;19;20078;-64
2024/03/12 03:41:08;;;;;;;129.77;71.32;;;7.50;99.90;;;;;;7371672;19;20456;-65
2024/03/12 03:43:36;;;;;;;145.52;75.45;;;7.50;99.90;;;;;;7369630;19;20015;-65
2024/03/12 03:46:05;;;;;;;132.07;71.75;;;7.50;99.90;;;;;;7372722;19;20022;-66
2024/03/12 03:48:32;;;;;;;137.90;75.90;;;7.60;99.90;;;;;;7362273;19;20022;-67
2024/03/12 03:50:58;;;;;;;159.82;78.65;;;7.60;99.90;;;;;;7375194;19;20113;-68
2024/03/12 03:53:24;;;;;;;154.15;79.70;;;7.50;99.90;;;;;;7372327;19;20047;-67
2024/03/12 03:55:50;;;;;;;170.02;79.10;;;7.50;99.90;;;;;;7362906;19;20350;-65
2024/03/12 03:58:18;;;;;;;197.00;83.07;;;7.50;99.90;;;;;;7371694;19;20030;-66
2024/03/12 04:00:44;;;;;;;179.15;81.38;;;7.50;99.90;;;;;;7371765;19;20501;-66
2024/03/12 04:03:10;;;;;;;193.23;85.55;;;7.50;99.90;;;;;;7375462;19;20022;-66
2024/03/12 04:05:37;;;;;;;200.07;87.22;;;7.50;99.90;;;;;;7370461;19;20037;-64
2024/03/12 04:08:03;;;;;;;203.13;85.85;;;7.50;99.90;;;;;;7374138;19;20017;-63
2024/03/12 04:10:32;;;;;;;212.90;89.95;;;7.50;99.90;;;;;;7372174;19;20025;-63
2024/03/12 04:12:59;;;;;;;194.68;88.03;;;7.50;99.90;;;;;;7373168;19;20022;-64
2024/03/12 04:15:28;;;;;;;181.65;86.75;;;7.50;99.90;;;;;;7367966;19;20014;-64
2024/03/12 04:17:54;;;;;;;176.18;83.63;;;7.50;99.90;;;;;;7369032;19;20018;-64
2024/03/12 04:20:21;;;;;;;207.07;91.93;;;7.50;99.90;;;;;;7372752;19;20018;-63
2024/03/12 04:22:47;;;;;;;177.23;84.22;;;7.50;99.90;;;;;;7369607;19;20022;-64
2024/03/12 04:25:17;;;;;;;153.82;82.30;;;7.50;99.90;;;;;;7373556;19;20022;-64
2024/03/12 04:27:44;;;;;;;166.82;81.60;;;7.50;99.90;;;;;;7367857;19;20023;-64
2024/03/12 04:30:12;;;;;;;154.98;81.07;;;7.50;99.90;;;;;;7377309;19;20041;-64
2024/03/12 04:32:39;;;;;;;161.60;81.95;;;7.50;99.90;;;;;;7370456;19;20018;-64
2024/03/12 04:35:07;;;;;;;153.45;82.10;;;7.50;99.90;;;;;;7371952;19;20053;-64
2024/03/12 04:37:33;;;;;;;135.57;78.13;;;7.50;99.90;;;;;;7366325;19;20022;-66
2024/03/12 04:40:00;;;;;;;142.02;79.28;;;7.50;99.90;;;;;;7372126;19;20022;-63
2024/03/12 04:42:27;;;;;;;146.15;76.28;;;7.50;99.90;;;;;;7374377;19;20026;-63
2024/03/12 04:44:54;;;;;;;146.55;77.82;;;7.50;99.90;;;;;;7374181;19;20018;-63
2024/03/12 04:47:20;;;;;;;137.93;77.28;;;7.50;99.90;;;;;;7372214;19;20455;-65
2024/03/12 04:49:47;;;;;;;138.35;77.82;;;7.50;99.90;;;;;;7372056;19;20804;-65
2024/03/12 04:52:15;;;;;;;129.27;75.10;;;7.50;99.90;;;;;;7370135;19;20037;-65
2024/03/12 04:54:42;;;;;;;133.98;74.07;;;7.50;99.90;;;;;;7366407;19;20014;-65
2024/03/12 04:57:09;;;;;;;124.25;74.53;;;7.50;99.90;;;;;;7371791;19;20023;-63
2024/03/12 04:59:35;;;;;;;126.38;75.45;;;7.50;99.90;;;;;;7368113;19;20055;-62
2024/03/12 05:02:02;;;;;;;124.95;74.78;;;7.50;99.90;;;;;;7374215;19;20444;-66
2024/03/12 05:04:28;;;;;;;121.35;74.30;;;7.50;99.90;;;;;;7370058;19;20499;-67
2024/03/12 05:06:54;;;;;;;120.90;73.20;;;7.40;99.90;;;;;;7373409;19;20032;-66
2024/03/12 05:09:23;;;;;;;111.30;69.10;;;7.50;99.90;;;;;;7371042;19;20025;-66
2024/03/12 05:11:49;;;;;;;118.40;70.90;;;7.40;99.90;;;;;;7370987;19;20025;-65
2024/03/12 05:14:16;;;;;;;112.32;71.15;;;7.40;99.90;;;;;;7370567;19;20521;-66
2024/03/12 05:16:42;;;;;;;115.85;70.13;;;7.40;99.90;;;;;;7368960;19;20022;-63
2024/03/12 05:19:10;;;;;;;112.78;72.32;;;7.40;99.90;;;;;;7369687;19;20369;-65
2024/03/12 05:21:38;;;;;;;104.85;67.93;;;7.40;99.90;;;;;;7371560;19;20043;-66
2024/03/12 05:24:04;;;;;;;108.35;67.88;;;7.40;99.90;;;;;;7372910;19;20105;-65
2024/03/12 05:26:32;;;;;;;120.00;70.90;;;7.40;99.90;;;;;;7369419;19;20022;-66
2024/03/12 05:28:59;;;;;;;115.15;69.65;;;7.40;99.90;;;;;;7374930;19;20022;-66
2024/03/12 05:31:38;;;;;;;119.43;67.93;;;7.40;99.90;;;;;;7372527;19;20112;-69
2024/03/12 05:34:27;;;;;;;105.82;65.55;;;7.40;99.90;;;;;;7374611;19;20030;-65
2024/03/12 05:37:03;;;;;;;106.78;69.10;;;7.30;99.90;;;;;;7369187;19;20022;-63
2024/03/12 05:40:00;;;;;;;110.75;67.13;;;7.30;99.90;;;;;;7372246;19;20026;-62
2024/03/12 05:48:10;;;;;;;106.90;67.05;;;7.40;99.90;;;;;;7373128;19;20128;-63
2024/03/12 05:50:40;;;;;;;108.22;67.88;;;7.40;99.90;;;;;;7368998;19;20355;-63
2024/03/12 05:53:08;;;;;;;111.75;67.43;;;7.40;99.90;;;;;;7370519;19;20538;-63
2024/03/12 05:55:35;;;;;;;102.07;67.60;;;7.40;99.90;;;;;;7370224;19;20039;-63
2024/03/12 05:58:02;;;;;;;108.50;66.05;;;7.40;99.90;;;;;;7364852;19;20025;-63
2024/03/12 06:00:28;;;;;;;104.50;67.47;;;7.40;99.90;;;;;;7368097;19;20014;-62
2024/03/12 06:02:54;;;;;;;106.53;67.05;;;7.40;99.90;;;;;;7368237;19;20038;-63
2024/03/12 06:05:21;;;;;;;96.22;65.80;;;7.40;99.90;;;;;;7367775;19;20019;-62
2024/03/12 06:07:52;;;;;;;105.13;65.68;;;7.30;99.90;;;;;;7367926;19;20086;-63
2024/03/12 06:10:18;;;;;;;98.32;65.35;;;7.30;99.90;;;;;;7370628;19;20047;-63
2024/03/12 06:12:44;;;;;;;100.13;63.58;;;7.30;99.90;;;;;;7366111;19;20022;-63
2024/03/12 06:15:11;;;;;;;101.45;62.90;;;7.30;99.90;;;;;;7366919;19;20026;-63
2024/03/12 06:17:37;;;;;;;98.25;62.97;;;7.30;99.90;;;;;;7366521;19;20014;-63
2024/03/12 06:20:08;;;;;;;99.78;63.13;;;7.30;99.90;;;;;;7369761;19;20074;-63
2024/03/12 06:22:34;;;;;;;97.43;62.45;;;7.40;99.90;;;;;;7369157;19;21105;-62
2024/03/12 06:25:00;;;;;;;99.50;63.63;;;7.40;99.90;;;;;;7367737;19;20953;-62
2024/03/12 06:27:26;;;;;;;89.97;61.35;;;7.40;99.90;;;;;;7369973;19;20030;-62
2024/03/12 06:29:53;;;;;;;101.78;64.32;;;7.40;99.90;;;;;;7373240;19;20593;-63
2024/03/12 06:32:20;;;;;;;96.68;62.08;;;7.40;99.90;;;;;;7369253;19;20019;-62
2024/03/12 06:34:48;;;;;;;100.15;61.47;;;7.40;99.90;;;;;;7368989;19;20061;-63
2024/03/12 06:37:15;;;;;;;92.57;61.50;;;7.40;99.90;;;;;;7368360;19;20511;-62
2024/03/12 06:39:41;;;;;;;90.88;60.20;;;7.40;99.90;;;;;;7377874;19;20026;-63
2024/03/12 06:42:08;;;;;;;98.15;64.50;;;7.50;99.90;;;;;;7377871;19;20506;-63
2024/03/12 06:44:40;;;;;;;97.35;61.17;;;7.50;99.90;;;;;;7375180;19;20094;-63
2024/03/12 06:47:09;;;;;;;95.55;60.20;;;7.50;99.90;;;;;;7377671;19;20017;-63
2024/03/12 06:49:36;;;;;;;99.35;61.67;;;7.50;99.90;;;;;;7374403;19;20022;-65
2024/03/12 06:52:06;;;;;;;103.07;62.72;;;7.50;99.90;;;;;;7377216;19;20018;-66
2024/03/12 06:54:36;;;;;;;99.57;61.47;;;7.50;99.90;;;;;;7379368;19;20764;-61
2024/03/12 06:57:04;;;;;;;91.80;61.28;;;7.60;99.90;;;;;;7377358;19;20022;-62
2024/03/12 06:59:34;;;;;;;90.20;61.40;;;7.50;99.90;;;;;;7373581;19;20029;-65
2024/03/12 07:02:01;;;;;;;103.80;62.40;;;7.60;99.90;;;;;;7376888;19;20026;-62
2024/03/12 07:04:34;;;;;;;96.30;61.50;;;7.60;99.90;;;;;;7374686;19;20366;-63
2024/03/12 07:07:07;;;;;;;110.22;65.60;;;7.60;99.90;;;;;;7377630;19;20094;-62
2024/03/12 07:09:37;;;;;;;105.07;61.42;;;7.60;99.90;;;;;;7375200;19;20757;-63
2024/03/12 07:12:05;;;;;;;98.20;63.15;;;7.60;99.90;;;;;;7376665;19;20018;-62
2024/03/12 07:14:43;;;;;;;95.47;62.97;;;7.60;99.90;;;;;;7376065;19;20038;-63
2024/03/12 07:17:10;;;;;;;112.07;64.93;;;7.60;99.90;;;;;;7373793;19;20019;-63
2024/03/12 07:19:38;;;;;;;106.75;64.55;;;7.60;99.90;;;;;;7376112;19;20026;-65
2024/03/12 07:22:07;;;;;;;116.85;67.25;;;7.70;99.90;;;;;;7378402;19;20021;-62
2024/03/12 07:24:35;;;;;;;109.18;64.20;;;7.60;99.90;;;;;;7376460;19;20018;-62
2024/03/12 07:27:05;;;;;;;118.68;68.82;;;7.60;99.90;;;;;;7377368;19;20046;-66
2024/03/12 07:29:35;;;;;;;117.78;67.32;;;7.60;99.90;;;;;;7377958;19;20378;-65
2024/03/12 07:32:03;;;;;;;124.90;69.47;;;7.70;99.90;;;;;;7378864;19;20806;-65
2024/03/12 07:34:31;;;;;;;134.00;71.68;;;7.60;99.90;;;;;;7356986;19;20032;-64
2024/03/12 07:36:58;;;;;;;134.52;72.20;;;7.70;99.90;;;;;;7367975;19;20018;-65
2024/03/12 07:39:24;;;;;;;151.10;70.57;;;7.70;99.90;;;;;;7370911;19;20022;-65
2024/03/12 07:41:55;;;;;;;147.85;71.15;;;7.60;99.90;;;;;;7372174;19;20029;-63
2024/03/12 07:44:22;;;;;;;174.63;75.35;;;7.70;99.90;;;;;;7368816;19;20896;-62
2024/03/12 07:46:52;;;;;;;166.40;73.15;;;7.60;99.90;;;;;;7367808;19;20527;-63
2024/03/12 07:49:22;;;;;;;173.93;78.30;;;7.60;99.90;;;;;;7368996;19;20200;-63
2024/03/12 07:51:52;;;;;;;174.88;76.07;;;7.60;99.90;;;;;;7372944;19;20025;-63
2024/03/12 07:54:21;;;;;;;157.50;73.10;;;7.60;99.90;;;;;;7367518;19;20018;-63
2024/03/12 07:56:51;;;;;;;174.77;76.22;;;7.70;99.90;;;;;;7368808;19;20038;-63
2024/03/12 07:59:22;;;;;;;165.85;72.47;;;7.70;99.90;;;;;;7370616;19;20014;-63
2024/03/12 08:01:57;;;;;;;153.27;71.80;;;7.70;99.90;;;;;;7371658;19;20029;-63
2024/03/12 08:04:26;;;;;;;132.02;64.60;;;7.70;99.90;;;;;;7368833;19;20018;-63
2024/03/12 08:06:53;;;;;;;116.55;62.78;;;7.70;99.90;;;;;;7373838;19;20022;-63
2024/03/12 08:09:19;;;;;;;112.80;59.58;;;7.70;99.90;;;;;;7370615;19;20342;-64
2024/03/12 08:11:49;;;;;;;109.75;60.97;;;7.80;99.90;;;;;;7373912;19;20039;-66
2024/03/12 08:14:17;;;;;;;108.88;58.25;;;7.90;99.90;;;;;;7378813;19;20022;-64
2024/03/12 08:16:43;;;;;;;91.68;51.72;;;7.90;99.90;;;;;;7385839;19;20752;-65
2024/03/12 08:19:11;;;;;;;101.72;52.15;;;7.90;99.90;;;;;;7383461;19;20471;-66
2024/03/12 08:21:38;;;;;;;85.75;49.45;;;7.90;99.90;;;;;;7379827;19;20026;-66
2024/03/12 08:24:05;;;;;;;78.97;48.20;;;7.90;99.90;;;;;;7389677;19;20032;-62
2024/03/12 08:26:32;;;;;;;81.43;47.97;;;7.90;99.90;;;;;;7385604;19;20479;-66
2024/03/12 08:28:58;;;;;;;79.82;46.88;;;7.90;99.90;;;;;;7388576;19;20078;-62
2024/03/12 08:31:27;;;;;;;76.32;43.50;;;7.90;99.90;;;;;;7369751;19;20006;-65
2024/03/12 08:33:54;;;;;;;75.30;43.78;;;7.90;99.90;;;;;;7382563;19;20014;-64
2024/03/12 08:36:24;;;;;;;76.32;43.15;;;7.90;99.90;;;;;;7385282;19;20015;-63
2024/03/12 08:38:50;;;;;;;71.07;41.30;;;8.00;99.90;;;;;;7385407;19;20041;-64
2024/03/12 08:41:17;;;;;;;69.40;40.53;;;8.00;99.90;;;;;;7373747;19;20019;-63
2024/03/12 08:43:43;;;;;;;75.20;41.60;;;8.00;99.90;;;;;;7380557;19;20018;-62
2024/03/12 08:46:10;;;;;;;68.85;39.72;;;8.00;99.90;;;;;;7375698;19;20360;-62
2024/03/12 08:48:36;;;;;;;66.53;39.17;;;8.00;99.90;;;;;;7370987;19;20018;-63
2024/03/12 08:51:03;;;;;;;93.43;68.05;;;7.90;99.90;;;;;;7385437;19;20018;-62
2024/03/12 08:53:33;;;;;;;66.13;43.85;;;8.00;99.90;;;;;;7374262;19;20411;-61
2024/03/12 08:56:01;;;;;;;48.03;28.95;;;8.20;99.90;;;;;;7372182;19;20023;-62
2024/03/12 08:58:27;;;;;;;47.10;27.52;;;8.20;99.90;;;;;;7368875;19;20032;-70
2024/03/12 09:00:55;;;;;;;42.35;25.58;;;8.10;99.90;;;;;;7370661;19;20026;-62
2024/03/12 09:03:21;;;;;;;39.03;25.70;;;8.10;99.90;;;;;;7379009;19;20026;-65
2024/03/12 09:05:48;;;;;;;36.28;23.70;;;8.10;99.90;;;;;;7374529;19;20720;-61
2024/03/12 09:08:17;;;;;;;34.10;23.63;;;8.10;99.90;;;;;;7374818;19;20046;-65
2024/03/12 09:10:47;;;;;;;35.38;24.10;;;8.20;99.90;;;;;;7374777;19;20011;-60
2024/03/12 09:13:19;;;;;;;34.28;23.75;;;8.20;99.90;;;;;;7373895;19;20025;-61
2024/03/12 09:15:46;;;;;;;;;;;8.20;99.90;;;;;;7384832;19;20356;-67
2024/03/12 09:18:14;;;;;;;32.95;22.67;;;8.30;99.90;;;;;;7394781;19;20265;-67
2024/03/12 09:20:40;;;;;;;30.33;21.02;;;8.20;99.90;;;;;;7383103;19;20011;-66
2024/03/12 09:23:06;;;;;;;28.02;21.05;;;8.20;99.90;;;;;;7381029;19;20053;-66
2024/03/12 09:25:33;;;;;;;26.80;20.65;;;8.20;99.90;;;;;;7386709;19;20022;-67
2024/03/12 09:28:00;;;;;;;26.10;19.25;;;8.10;99.90;;;;;;7384962;19;20021;-67
2024/03/12 09:30:27;;;;;;;26.08;19.60;;;8.10;99.90;;;;;;7388861;19;20030;-67
2024/03/12 09:32:53;;;;;;;25.58;19.63;;;8.10;99.90;;;;;;7381265;19;20053;-64
2024/03/12 09:35:19;;;;;;;28.98;19.58;;;8.10;99.90;;;;;;7370621;19;20724;-66
2024/03/12 09:37:46;;;;;;;28.75;19.50;;;8.00;99.90;;;;;;7374107;19;20463;-67
2024/03/12 09:40:13;;;;;;;28.30;20.40;;;8.00;99.90;;;;;;7393655;19;20011;-68
2024/03/12 09:42:45;;;;;;;26.50;19.02;;;8.10;99.90;;;;;;7395190;19;20112;-68
2024/03/12 09:45:11;;;;;;;25.40;18.85;;;8.20;99.90;;;;;;7394636;19;20015;-68
2024/03/12 09:47:39;;;;;;;26.77;19.10;;;8.30;99.90;;;;;;7396682;19;20015;-67
2024/03/12 09:50:16;;;;;;;23.92;19.70;;;8.40;99.90;;;;;;7395469;19;20010;-67
2024/03/12 09:52:46;;;;;;;25.23;19.23;;;8.50;99.90;;;;;;7394227;19;20043;-68
2024/03/12 09:55:14;;;;;;;26.13;20.33;;;8.50;99.90;;;;;;7376438;19;20014;-62
2024/03/12 09:57:46;;;;;;;27.15;19.30;;;8.50;99.90;;;;;;7388907;19;20082;-67
2024/03/12 10:00:19;;;;;;;22.08;18.15;;;8.50;99.90;;;;;;7365122;19;20035;-64
2024/03/12 10:02:51;;;;;;;22.48;17.27;;;8.50;99.90;;;;;;7374214;19;20844;-65
2024/03/12 10:05:22;;;;;;;20.65;16.73;;;8.50;99.90;;;;;;7360087;19;20022;-65
2024/03/12 10:08:08;;;;;;;24.25;19.20;;;8.50;99.90;;;;;;7371462;19;20490;-64
2024/03/12 10:10:45;;;;;;;29.42;21.42;;;8.40;99.90;;;;;;7388658;19;20018;-66
2024/03/12 10:13:19;;;;;;;26.95;20.88;;;8.40;99.90;;;;;;7390117;19;20498;-68
2024/03/12 10:16:02;;;;;;;29.08;20.95;;;8.30;99.90;;;;;;7364210;19;20030;-65
2024/03/12 10:18:30;;;;;;;31.42;21.55;;;8.30;99.90;;;;;;7365520;19;20019;-65
2024/03/12 10:21:01;;;;;;;34.42;20.85;;;8.30;99.90;;;;;;7365198;19;20060;-65
2024/03/12 10:23:29;;;;;;;31.53;20.77;;;8.30;99.90;;;;;;7393837;19;20007;-67
2024/03/12 10:26:16;;;;;;;34.63;22.58;;;8.30;99.90;;;;;;7397379;19;20022;-67
2024/03/12 10:28:46;;;;;;;34.05;22.00;;;8.20;99.90;;;;;;7381571;19;20027;-67
2024/03/12 10:31:14;;;;;;;37.00;23.95;;;8.20;99.90;;;;;;7382031;19;20083;-66
2024/03/12 10:33:44;;;;;;;35.83;23.30;;;8.20;99.90;;;;;;7377553;19;20108;-65
2024/03/12 10:36:11;;;;;;;39.65;23.45;;;8.20;99.90;;;;;;7362017;19;20019;-65
2024/03/12 10:38:39;;;;;;;36.65;24.25;;;8.20;99.90;;;;;;7364718;19;20023;-65
2024/03/12 10:41:21;;;;;;;43.22;25.50;;;8.20;99.90;;;;;;7363980;19;20031;-65
2024/03/12 10:43:50;;;;;;;40.97;25.05;;;8.20;99.90;;;;;;7370163;19;20029;-65
2024/03/12 10:46:19;;;;;;;40.55;24.35;;;8.20;99.90;;;;;;7361120;19;20112;-66
2024/03/12 10:48:47;;;;;;;44.80;24.95;;;8.20;99.90;;;;;;7370299;19;20031;-64
2024/03/12 10:51:15;;;;;;;43.72;25.70;;;8.20;99.90;;;;;;7365567;19;20019;-65
2024/03/12 10:53:49;;;;;;;41.92;24.45;;;8.20;99.90;;;;;;7365950;19;20066;-65
2024/03/12 10:56:16;;;;;;;43.88;25.58;;;8.20;99.90;;;;;;7363112;19;20010;-65
2024/03/12 10:58:50;;;;;;;45.90;24.65;;;8.20;99.90;;;;;;7365294;19;20018;-65
2024/03/12 11:01:18;;;;;;;46.42;25.20;;;8.20;99.90;;;;;;7361104;19;20022;-65
2024/03/12 11:03:45;;;;;;;44.90;25.65;;;8.20;99.90;;;;;;7365405;19;20574;-65
2024/03/12 11:06:15;;;;;;;47.40;26.52;;;8.10;99.90;;;;;;7364663;19;20026;-65
2024/03/12 11:08:44;;;;;;;47.65;26.35;;;8.00;99.90;;;;;;7361320;19;20045;-65
2024/03/12 11:11:10;;;;;;;43.55;26.55;;;8.00;99.90;;;;;;7363214;19;20472;-65
2024/03/12 11:13:37;;;;;;;47.75;28.27;;;8.00;99.90;;;;;;7365917;19;20022;-65
2024/03/12 11:16:17;;;;;;;52.28;28.92;;;8.00;99.90;;;;;;7366398;19;20010;-65
2024/03/12 11:18:44;;;;;;;50.50;27.58;;;8.00;99.90;;;;;;7362569;19;20114;-65
2024/03/12 11:21:31;;;;;;;51.22;29.33;;;8.00;99.90;;;;;;7379592;19;20339;-67
2024/03/12 11:23:58;;;;;;;47.35;27.92;;;8.00;99.90;;;;;;7369980;19;20485;-65
2024/03/12 11:26:30;;;;;;;54.85;29.75;;;8.00;99.90;;;;;;7375278;19;20094;-66
2024/03/12 11:28:59;;;;;;;55.95;28.83;;;8.00;99.90;;;;;;7387834;19;20011;-66
2024/03/12 11:31:38;;;;;;;51.08;28.80;;;8.10;99.90;;;;;;7389559;19;20749;-66
2024/03/12 11:34:06;;;;;;;49.05;27.63;;;8.10;99.90;;;;;;7379410;19;20030;-65
2024/03/12 11:36:44;;;;;;;52.85;26.33;;;8.10;99.90;;;;;;7367676;19;20913;-65
2024/03/12 11:39:23;;;;;;;54.67;27.92;;;8.20;99.90;;;;;;7373040;19;20058;-65
2024/03/12 11:42:00;;;;;;;50.45;25.52;;;8.20;99.90;;;;;;7378975;19;20026;-66
2024/03/12 11:44:47;;;;;;;45.72;25.63;;;8.30;99.90;;;;;;7400085;19;20025;-67
2024/03/12 11:47:36;;;;;;;46.30;25.15;;;8.30;99.90;;;;;;7400399;19;20015;-66
2024/03/12 11:50:34;;;;;;;44.58;23.60;;;8.30;99.90;;;;;;7398298;19;20014;-67
2024/03/12 11:53:14;;;;;;;47.83;25.27;;;8.40;99.90;;;;;;7375931;19;20021;-65
2024/03/12 11:56:10;;;;;;;44.13;24.25;;;8.40;99.90;;;;;;7374009;19;20034;-65
2024/03/12 11:58:55;;;;;;;43.10;24.38;;;8.40;99.90;;;;;;7377476;19;20097;-67
2024/03/12 12:01:31;;;;;;;46.40;24.48;;;8.40;99.90;;;;;;7399624;19;20014;-67
2024/03/12 12:04:10;;;;;;;40.50;23.55;;;8.40;99.90;;;;;;7400240;19;20037;-68
2024/03/12 12:06:39;;;;;;;41.78;22.48;;;8.50;99.90;;;;;;7399793;19;20022;-67
2024/03/12 12:09:08;;;;;;;40.28;22.02;;;8.50;99.90;;;;;;7383788;19;20018;-67
2024/03/12 12:11:38;;;;;;;45.05;23.73;;;8.50;99.90;;;;;;7398662;19;20018;-66
2024/03/12 12:14:12;;;;;;;35.85;21.33;;;8.60;99.90;;;;;;7396252;19;20459;-67
2024/03/12 12:16:39;;;;;;;42.70;23.27;;;8.50;99.90;;;;;;7376497;19;20126;-65
2024/03/12 12:19:10;;;;;;;40.85;23.15;;;8.50;99.90;;;;;;7367517;19;20632;-64
2024/03/12 12:21:38;;;;;;;41.08;22.33;;;8.40;99.90;;;;;;7382231;19;20547;-64
2024/03/12 12:24:07;;;;;;;43.83;21.75;;;8.40;99.90;;;;;;7368950;19;20038;-65
2024/03/12 12:26:33;;;;;;;46.88;22.75;;;8.30;99.90;;;;;;7371057;19;20620;-64
2024/03/12 12:29:03;;;;;;;44.55;21.88;;;8.40;99.90;;;;;;7366986;19;20131;-65
2024/03/12 12:31:35;;;;;;;36.88;22.80;;;8.40;99.90;;;;;;7397146;19;20018;-66
2024/03/12 12:34:03;;;;;;;44.83;24.13;;;8.40;99.90;;;;;;7383714;19;20022;-64
2024/03/12 12:36:32;;;;;;;39.38;22.20;;;8.50;99.90;;;;;;7367310;19;20018;-65
2024/03/12 12:39:03;;;;;;;42.90;23.08;;;8.50;99.90;;;;;;7367694;19;20015;-65
2024/03/12 12:41:42;;;;;;;39.77;23.50;;;8.60;99.90;;;;;;7370492;19;20646;-65
2024/03/12 12:44:15;;;;;;;37.95;22.27;;;8.60;99.90;;;;;;7365232;19;20127;-63
2024/03/12 12:46:45;;;;;;;42.55;24.42;;;8.60;99.90;;;;;;7373113;19;20685;-66
2024/03/12 12:49:13;;;;;;;43.15;22.60;;;8.50;99.90;;;;;;7372091;19;20029;-65